createdAt,value
2022-11-07T00:03:26.128Z,13.98
2022-11-07T00:09:28.678Z,18.87
2022-11-07T00:15:31.148Z,15.32
2022-11-07T00:21:33.400Z,21.02
2022-11-07T00:27:35.680Z,16.95
2022-11-07T00:39:40.879Z,15.23
2022-11-07T00:45:45.244Z,16.58
2022-11-07T00:51:47.370Z,18.73
2022-11-07T00:57:49.520Z,24.53
2022-11-07T01:04:10.656Z,14.27
2022-11-07T01:10:12.692Z,17.60
2022-11-07T01:16:15.056Z,22.40
2022-11-07T01:22:17.183Z,27.33
2022-11-07T01:28:19.283Z,30.10
2022-11-07T01:34:21.523Z,16.20
2022-11-07T01:40:23.806Z,23.10
2022-11-07T01:46:35.304Z,16.83
2022-11-07T01:52:42.153Z,10.55
2022-11-07T01:58:45.821Z,16.67
2022-11-07T02:04:48.307Z,16.77
2022-11-07T02:10:51.444Z,20.00
2022-11-07T02:16:54.029Z,18.58
2022-11-07T02:23:09.464Z,13.68
2022-11-07T02:29:13.273Z,22.08
2022-11-07T02:35:34.472Z,24.50
2022-11-07T02:41:36.670Z,29.38
2022-11-07T02:47:38.859Z,19.77
2022-11-07T02:53:41.167Z,18.50
2022-11-07T02:59:43.333Z,16.92
2022-11-07T03:05:45.492Z,13.10
2022-11-07T03:11:48.083Z,20.45
2022-11-07T03:17:50.265Z,21.48
2022-11-07T03:23:52.654Z,30.27
2022-11-07T03:29:55.027Z,18.83
2022-11-07T03:35:57.372Z,19.60
2022-11-07T03:41:59.635Z,24.50
2022-11-07T03:48:01.896Z,21.55
2022-11-07T03:54:04.310Z,20.90
2022-11-07T04:00:07.602Z,32.42
2022-11-07T04:06:14.022Z,24.30
2022-11-07T04:12:35.053Z,16.90
2022-11-07T04:18:37.288Z,25.10
2022-11-07T04:24:45.402Z,23.50
2022-11-07T04:30:48.160Z,30.98
2022-11-07T04:36:50.490Z,16.15
2022-11-07T04:42:52.970Z,16.95
2022-11-07T04:48:55.154Z,19.63
2022-11-07T04:54:57.378Z,25.95
2022-11-07T05:00:59.530Z,29.33
2022-11-07T05:07:01.629Z,18.95
2022-11-07T05:13:03.752Z,18.10
2022-11-07T05:19:06.030Z,20.97
2022-11-07T05:25:08.833Z,27.88
2022-11-07T05:37:17.826Z,18.13
2022-11-07T05:43:20.095Z,23.52
2022-11-07T05:49:22.619Z,25.17
2022-11-07T05:55:25.863Z,22.83
2022-11-07T06:01:28.037Z,23.60
2022-11-07T06:07:33.167Z,22.17
2022-11-07T06:13:35.440Z,19.50
2022-11-07T06:19:37.719Z,17.73
2022-11-07T06:25:40.077Z,16.10
2022-11-07T06:31:42.255Z,18.70
2022-11-07T06:37:44.652Z,19.40
2022-11-07T06:43:46.846Z,19.25
2022-11-07T06:49:49.055Z,20.88
2022-11-07T06:55:51.390Z,29.67
2022-11-07T07:01:53.776Z,28.25
2022-11-07T07:07:56.347Z,24.77
2022-11-07T07:14:02.100Z,21.10
2022-11-07T07:20:05.729Z,21.98
2022-11-07T07:26:12.920Z,22.38
2022-11-07T07:32:15.108Z,16.70
2022-11-07T07:38:17.302Z,22.13
2022-11-07T07:44:19.595Z,20.27
2022-11-07T07:50:21.807Z,13.00
2022-11-07T07:56:24.043Z,17.20
2022-11-07T08:02:26.115Z,13.38
2022-11-07T08:08:31.419Z,20.27
2022-11-07T08:14:36.314Z,15.00
2022-11-07T08:20:38.478Z,13.55
2022-11-07T08:26:40.760Z,14.50
2022-11-07T08:32:43.000Z,13.13
2022-11-07T08:38:45.118Z,18.52
2022-11-07T08:44:47.430Z,13.45
2022-11-07T08:50:56.518Z,31.65
2022-11-07T08:56:58.753Z,14.43
2022-11-07T09:09:28.945Z,24.40
2022-11-07T09:15:31.160Z,12.82
2022-11-07T09:21:33.311Z,14.85
2022-11-07T09:27:36.187Z,11.75
2022-11-07T09:33:38.403Z,31.80
2022-11-07T09:39:40.536Z,19.70
2022-11-07T09:46:00.972Z,18.02
2022-11-07T09:52:41.231Z,23.08
2022-11-07T09:58:44.769Z,17.75
2022-11-07T10:04:49.954Z,15.77
2022-11-07T10:11:01.350Z,15.95
2022-11-07T10:17:34.884Z,18.10
2022-11-07T10:23:54.410Z,20.38
2022-11-07T10:29:56.532Z,20.52
2022-11-07T10:36:22.128Z,31.40
2022-11-07T10:42:29.002Z,22.20
2022-11-07T10:48:33.416Z,14.23
2022-11-07T10:54:35.519Z,14.40
2022-11-07T11:00:41.758Z,17.67
2022-11-07T11:06:43.972Z,15.57
2022-11-07T11:12:47.776Z,20.77
2022-11-07T11:19:00.543Z,17.40
2022-11-07T11:31:26.070Z,18.33
2022-11-07T11:37:28.988Z,22.67
2022-11-07T11:43:44.613Z,14.35
2022-11-07T11:49:56.302Z,11.05
2022-11-07T11:56:07.436Z,21.93
2022-11-07T12:02:47.763Z,15.27
2022-11-07T12:08:56.812Z,16.73
2022-11-07T12:15:28.938Z,21.70
2022-11-07T12:21:34.933Z,23.73
2022-11-07T12:28:03.814Z,24.60
2022-11-07T12:34:14.687Z,17.05
2022-11-07T12:40:35.777Z,16.10
2022-11-07T12:47:08.614Z,22.58
2022-11-07T12:53:26.767Z,18.50
2022-11-07T12:59:31.563Z,18.42
2022-11-07T13:05:50.441Z,12.75
2022-11-07T13:12:09.286Z,18.05
2022-11-07T13:18:25.826Z,13.82
2022-11-07T13:24:29.896Z,20.90
2022-11-07T13:30:37.093Z,21.80
2022-11-07T13:36:39.697Z,18.50
2022-11-07T13:48:55.669Z,14.35
2022-11-07T13:55:06.122Z,21.58
2022-11-07T14:01:13.350Z,39.88
2022-11-07T14:07:15.665Z,26.83
2022-11-07T14:13:41.499Z,53.58
2022-11-07T14:19:44.808Z,101.93
2022-11-07T14:25:55.985Z,27.42
2022-11-07T14:32:00.455Z,21.60
2022-11-07T14:38:12.003Z,20.75
2022-11-07T14:44:17.958Z,22.67
2022-11-07T14:50:25.224Z,19.00
2022-11-07T14:56:34.215Z,20.13
2022-11-07T15:02:36.752Z,26.05
2022-11-07T15:08:39.030Z,28.58
2022-11-07T15:14:41.374Z,25.42
2022-11-07T15:20:43.910Z,32.20
2022-11-07T15:26:46.048Z,32.05
2022-11-07T15:32:48.888Z,26.30
2022-11-07T15:38:52.021Z,25.80
2022-11-07T15:44:54.153Z,40.38
2022-11-07T15:50:56.804Z,50.87
2022-11-07T16:04:11.526Z,56.03
2022-11-07T16:10:26.194Z,41.30
2022-11-07T16:16:32.764Z,40.28
2022-11-07T16:22:35.024Z,42.10
2022-11-07T16:28:37.565Z,30.77
2022-11-07T16:34:40.066Z,36.38
2022-11-07T16:40:42.680Z,36.72
2022-11-07T16:52:47.597Z,43.38
2022-11-07T16:58:50.089Z,46.60
2022-11-07T17:04:54.765Z,41.60
2022-11-07T17:10:57.254Z,30.85
2022-11-07T17:17:01.997Z,45.35
2022-11-07T17:23:04.059Z,61.25
2022-11-07T17:29:08.929Z,58.03
2022-11-07T17:35:31.289Z,34.63
2022-11-07T17:41:33.699Z,48.40
2022-11-07T17:47:36.136Z,60.00
2022-11-07T17:53:38.946Z,56.05
2022-11-07T17:59:45.712Z,71.55
2022-11-07T18:05:49.522Z,52.30
2022-11-07T18:11:51.949Z,81.70
2022-11-07T18:17:54.204Z,81.95
2022-11-07T18:23:57.745Z,77.32
2022-11-07T18:30:00.011Z,72.35
2022-11-07T18:36:07.665Z,90.28
2022-11-07T18:42:09.913Z,88.35
2022-11-07T18:48:12.267Z,99.85
2022-11-07T18:54:15.065Z,95.57
2022-11-07T19:00:17.715Z,106.18
2022-11-07T19:06:21.626Z,99.28
2022-11-07T19:12:24.138Z,76.13
2022-11-07T19:18:26.280Z,73.35
2022-11-07T19:24:28.524Z,73.03
2022-11-07T19:30:33.610Z,75.30
2022-11-07T19:36:37.340Z,62.55
2022-11-07T19:42:39.601Z,54.70
2022-11-07T19:48:42.935Z,57.55
2022-11-07T19:54:45.754Z,54.60
2022-11-07T20:06:50.657Z,45.45
2022-11-07T20:12:53.118Z,40.85
2022-11-07T20:18:55.291Z,40.97
2022-11-07T20:24:57.394Z,58.00
2022-11-07T20:30:59.461Z,46.27
2022-11-07T20:37:01.885Z,62.70
2022-11-07T20:43:05.597Z,47.70
2022-11-07T20:49:11.348Z,55.70
2022-11-07T20:55:13.605Z,47.78
2022-11-07T21:01:21.619Z,43.50
2022-11-07T21:07:23.861Z,48.55
2022-11-07T21:13:26.168Z,44.10
2022-11-07T21:19:29.561Z,54.28
2022-11-07T21:25:31.863Z,61.83
2022-11-07T21:31:35.423Z,59.25
2022-11-07T21:37:37.554Z,67.63
2022-11-07T21:43:39.729Z,68.47
2022-11-07T21:49:41.832Z,69.10
2022-11-07T21:55:43.965Z,67.13
2022-11-07T22:01:48.911Z,73.80
2022-11-07T22:07:51.443Z,65.13
2022-11-07T22:13:53.852Z,61.53
2022-11-07T22:19:55.970Z,65.10
2022-11-07T22:26:10.659Z,61.40
2022-11-07T22:32:12.812Z,60.35
2022-11-07T22:38:14.886Z,60.97
2022-11-07T22:44:17.081Z,46.73
2022-11-07T22:50:19.503Z,64.50
2022-11-07T22:56:21.723Z,57.72
2022-11-07T23:02:24.031Z,45.92
2022-11-07T23:08:26.393Z,55.40
2022-11-07T23:14:28.565Z,56.80
2022-11-07T23:20:49.451Z,49.70
2022-11-07T23:26:52.020Z,56.80
2022-11-07T23:32:54.132Z,49.67
2022-11-07T23:38:56.485Z,32.50
2022-11-07T23:45:17.290Z,26.33
2022-11-07T23:51:19.413Z,40.63
2022-11-07T23:57:21.759Z,34.10
